createdAt,value
2018-04-20T00:00:21.585Z,23.20
2018-04-20T00:02:48.958Z,23.10
2018-04-20T00:05:16.404Z,22.80
2018-04-20T00:10:12.870Z,22.90
2018-04-20T00:12:40.960Z,22.60
2018-04-20T00:15:09.063Z,22.80
2018-04-20T00:20:05.007Z,22.50
2018-04-20T00:22:32.395Z,22.30
2018-04-20T00:24:59.770Z,22.10
2018-04-20T00:29:55.487Z,22.30
2018-04-20T00:34:51.279Z,22.60
2018-04-20T00:39:47.036Z,23.00
2018-04-20T00:42:14.498Z,22.90
2018-04-20T00:44:41.902Z,22.80
2018-04-20T00:54:34.178Z,22.20
2018-04-20T00:59:30.566Z,21.70
2018-04-20T01:01:58.631Z,21.50
2018-04-20T01:04:26.059Z,21.80
2018-04-20T01:09:21.705Z,21.90
2018-04-20T01:11:49.880Z,21.60
2018-04-20T01:14:17.281Z,21.70
2018-04-20T01:16:45.709Z,21.50
2018-04-20T01:19:13.028Z,21.20
2018-04-20T01:24:08.671Z,21.90
2018-04-20T01:26:36.779Z,22.10
2018-04-20T01:29:04.163Z,22.30
2018-04-20T01:31:32.322Z,22.10
2018-04-20T01:34:00.385Z,22.10
2018-04-20T01:38:56.249Z,22.50
2018-04-20T01:43:52.615Z,22.60
2018-04-20T01:46:20.692Z,22.60
2018-04-20T01:48:48.115Z,22.50
2018-04-20T01:51:16.451Z,22.40
2018-04-20T01:53:43.846Z,22.30
2018-04-20T01:56:11.999Z,22.20
2018-04-20T01:58:39.338Z,22.20
2018-04-20T02:01:07.953Z,22.40
2018-04-20T02:03:35.499Z,22.50
2018-04-20T02:06:02.900Z,22.50
2018-04-20T02:08:31.048Z,22.50
2018-04-20T02:10:59.162Z,22.10
2018-04-20T02:15:54.931Z,21.80
2018-04-20T02:18:22.480Z,21.80
2018-04-20T02:20:49.859Z,21.60
2018-04-20T02:23:17.440Z,21.80
2018-04-20T02:25:44.819Z,22.00
2018-04-20T02:28:12.895Z,22.20
2018-04-20T02:30:41.008Z,22.40
2018-04-20T02:35:36.610Z,22.50
2018-04-20T02:40:32.261Z,22.60
2018-04-20T02:45:28.159Z,22.90
2018-04-20T02:50:24.787Z,23.00
2018-04-20T02:55:20.514Z,23.20
2018-04-20T02:57:47.882Z,23.30
2018-04-20T03:00:15.983Z,23.30
2018-04-20T03:02:43.356Z,23.40
2018-04-20T03:05:10.771Z,23.40
2018-04-20T03:10:07.910Z,23.40
2018-04-20T03:12:35.256Z,23.40
2018-04-20T03:15:02.620Z,23.30
2018-04-20T03:19:58.246Z,23.30
2018-04-20T03:22:25.701Z,23.30
2018-04-20T03:24:54.253Z,23.30
2018-04-20T03:27:21.583Z,23.40
2018-04-20T03:29:49.197Z,23.50
2018-04-20T03:32:16.574Z,23.70
2018-04-20T03:34:44.686Z,23.60
2018-04-20T03:37:12.074Z,23.40
2018-04-20T03:39:39.446Z,23.40
2018-04-20T03:42:06.827Z,23.30
2018-04-20T03:44:34.954Z,23.30
2018-04-20T03:47:03.333Z,23.20
2018-04-20T03:49:30.728Z,23.00
2018-04-20T03:51:59.010Z,22.70
2018-04-20T03:54:27.121Z,22.20
2018-04-20T03:56:55.026Z,21.60
2018-04-20T03:59:23.146Z,21.50
2018-04-20T04:01:51.248Z,21.60
2018-04-20T04:04:18.672Z,22.00
2018-04-20T04:06:46.756Z,22.40
2018-04-20T04:09:14.897Z,22.60
2018-04-20T04:11:43.037Z,22.70
2018-04-20T04:14:11.208Z,22.40
2018-04-20T04:19:25.057Z,22.60
2018-04-20T04:22:04.742Z,22.60
2018-04-20T04:24:44.391Z,22.40
2018-04-20T04:30:15.062Z,22.40
2018-04-20T04:32:42.454Z,22.60
2018-04-20T04:37:38.963Z,23.00
2018-04-20T04:42:35.297Z,23.10
2018-04-20T04:47:31.795Z,23.50
2018-04-20T04:49:59.386Z,23.60
2018-04-20T04:54:54.980Z,23.30
2018-04-20T05:02:19.114Z,23.10
2018-04-20T05:07:15.602Z,23.40
2018-04-20T05:12:11.368Z,23.30
2018-04-20T05:14:38.867Z,23.40
2018-04-20T05:19:34.478Z,23.50
2018-04-20T05:24:30.171Z,23.50
2018-04-20T05:26:57.541Z,23.30
2018-04-20T05:29:25.646Z,21.10
2018-04-20T05:31:53.018Z,21.40
2018-04-20T05:36:49.402Z,21.80
2018-04-20T05:39:16.746Z,22.10
2018-04-20T05:41:44.842Z,22.40
2018-04-20T05:44:12.266Z,22.80
2018-04-20T05:46:39.704Z,22.20
2018-04-20T05:49:08.021Z,22.50
2018-04-20T05:54:04.679Z,22.00
2018-04-20T05:56:32.074Z,21.70
2018-04-20T06:01:29.532Z,21.60
2018-04-20T06:03:56.886Z,22.60
2018-04-20T06:06:24.291Z,23.50
2018-04-20T06:11:20.090Z,24.20
2018-04-20T06:13:48.255Z,24.20
2018-04-20T06:18:43.963Z,24.70
2018-04-20T06:23:40.595Z,24.90
2018-04-20T06:26:09.422Z,24.80
2018-04-20T06:33:33.571Z,25.10
2018-04-20T06:38:29.213Z,25.60
2018-04-20T06:40:57.363Z,25.80
2018-04-20T06:43:24.754Z,25.90
2018-04-20T06:45:52.874Z,26.00
2018-04-20T06:50:48.579Z,26.10
2018-04-20T06:58:13.391Z,25.30
2018-04-20T07:00:40.810Z,25.20
2018-04-20T07:03:08.898Z,25.40
2018-04-20T07:05:37.087Z,25.50
2018-04-20T07:08:05.383Z,25.80
2018-04-20T07:10:32.792Z,25.90
2018-04-20T07:15:28.486Z,26.30
2018-04-20T07:20:49.587Z,26.60
2018-04-20T07:23:18.208Z,26.60
2018-04-20T07:25:45.585Z,26.70
2018-04-20T07:28:13.715Z,26.60
2018-04-20T07:33:13.249Z,27.00
2018-04-20T07:35:46.594Z,27.10
2018-04-20T07:38:14.758Z,27.30
2018-04-20T07:40:42.198Z,27.50
2018-04-20T07:43:10.449Z,27.70
2018-04-20T07:45:37.974Z,28.00
2018-04-20T07:48:07.870Z,28.10
2018-04-20T07:50:35.202Z,28.30
2018-04-20T07:53:03.343Z,28.40
2018-04-20T07:55:30.692Z,28.60
2018-04-20T08:00:27.118Z,27.90
2018-04-20T08:02:54.526Z,27.80
2018-04-20T08:05:22.047Z,27.90
2018-04-20T08:07:49.422Z,27.90
2018-04-20T08:10:16.851Z,27.60
2018-04-20T08:12:44.202Z,27.20
2018-04-20T08:15:11.720Z,27.10
2018-04-20T08:17:39.813Z,27.60
2018-04-20T08:20:07.227Z,27.90
2018-04-20T08:22:34.697Z,28.40
2018-04-20T08:25:02.069Z,28.90
2018-04-20T08:27:29.507Z,28.40
2018-04-20T08:29:56.879Z,28.10
2018-04-20T08:32:24.283Z,28.50
2018-04-20T08:34:51.807Z,28.70
2018-04-20T08:37:19.162Z,29.20
2018-04-20T08:39:46.665Z,29.80
2018-04-20T08:42:14.781Z,30.10
2018-04-20T08:44:42.256Z,30.20
2018-04-20T08:47:12.407Z,30.30
2018-04-20T08:49:42.498Z,30.60
2018-04-20T08:52:09.970Z,30.80
2018-04-20T08:54:37.401Z,30.70
2018-04-20T08:57:05.732Z,30.60
2018-04-20T08:59:33.098Z,30.00
2018-04-20T09:02:01.258Z,30.40
2018-04-20T09:04:29.454Z,30.90
2018-04-20T09:06:57.704Z,31.30
2018-04-20T09:09:25.929Z,31.80
2018-04-20T09:11:53.294Z,32.10
2018-04-20T09:14:23.478Z,32.30
2018-04-20T09:19:20.871Z,32.90
2018-04-20T09:26:44.862Z,33.10
2018-04-20T09:31:41.454Z,33.00
2018-04-20T09:34:08.822Z,33.60
2018-04-20T09:36:38.999Z,34.10
2018-04-20T09:39:06.582Z,34.50
2018-04-20T09:41:34.043Z,34.90
2018-04-20T09:44:01.431Z,34.40
2018-04-20T09:46:28.914Z,33.90
2018-04-20T09:48:57.037Z,33.50
2018-04-20T09:51:24.468Z,33.30
2018-04-20T09:53:51.989Z,33.50
2018-04-20T09:56:20.211Z,33.40
2018-04-20T09:58:47.551Z,33.30
2018-04-20T10:01:15.222Z,33.70
2018-04-20T10:03:45.663Z,34.00
2018-04-20T10:06:13.066Z,35.10
2018-04-20T10:08:40.486Z,35.80
2018-04-20T10:11:07.940Z,35.90
2018-04-20T10:13:35.384Z,36.20
2018-04-20T10:18:31.118Z,36.50
2018-04-20T10:20:58.470Z,37.10
2018-04-20T10:23:25.873Z,37.30
2018-04-20T10:25:54.078Z,37.80
2018-04-20T10:28:21.439Z,38.20
2018-04-20T10:30:49.583Z,38.50
2018-04-20T10:33:17.001Z,39.00
2018-04-20T10:35:44.537Z,39.00
2018-04-20T10:38:12.656Z,38.10
2018-04-20T10:40:40.031Z,38.60
2018-04-20T10:43:08.410Z,38.70
2018-04-20T10:45:35.751Z,38.60
2018-04-20T10:48:03.150Z,38.50
2018-04-20T10:50:30.542Z,38.00
2018-04-20T10:52:58.701Z,37.50
2018-04-20T10:55:26.298Z,37.80
2018-04-20T10:57:53.679Z,38.70
2018-04-20T11:00:21.814Z,39.50
2018-04-20T11:02:49.200Z,40.50
2018-04-20T11:05:17.371Z,41.20
2018-04-20T11:07:45.063Z,41.40
2018-04-20T11:10:13.291Z,40.80
2018-04-20T11:15:11.635Z,39.70
2018-04-20T11:20:07.275Z,40.00
2018-04-20T11:22:34.606Z,39.10
2018-04-20T11:27:31.042Z,39.50
2018-04-20T11:29:58.418Z,40.30
2018-04-20T11:34:54.840Z,39.90
2018-04-20T11:37:23.005Z,40.40
2018-04-20T11:39:50.910Z,39.90
2018-04-20T11:42:18.336Z,39.40
2018-04-20T11:44:45.683Z,39.90
2018-04-20T11:47:13.029Z,39.60
2018-04-20T11:49:40.430Z,39.60
2018-04-20T11:52:07.826Z,39.50
2018-04-20T11:54:35.935Z,39.50
2018-04-20T11:57:03.319Z,40.40
2018-04-20T11:59:30.710Z,40.60
2018-04-20T12:01:58.861Z,39.40
2018-04-20T12:04:26.407Z,38.90
2018-04-20T12:06:53.817Z,39.20
2018-04-20T12:09:21.447Z,40.30
2018-04-20T12:11:48.906Z,40.80
2018-04-20T12:14:17.003Z,40.10
2018-04-20T12:16:44.540Z,39.30
2018-04-20T12:19:12.625Z,38.50
2018-04-20T12:21:40.044Z,38.10
2018-04-20T12:24:08.146Z,37.50
2018-04-20T12:26:35.606Z,36.90
2018-04-20T12:29:03.841Z,36.60
2018-04-20T12:31:31.217Z,35.90
2018-04-20T12:33:58.621Z,35.70
2018-04-20T12:36:26.100Z,35.70
2018-04-20T12:38:53.498Z,35.40
2018-04-20T12:41:20.962Z,34.70
2018-04-20T12:43:48.370Z,34.60
2018-04-20T12:46:15.754Z,34.30
2018-04-20T12:48:43.148Z,34.30
2018-04-20T12:51:10.631Z,35.20
2018-04-20T12:53:37.995Z,35.80
2018-04-20T12:56:05.387Z,35.90
2018-04-20T12:58:32.846Z,35.80
2018-04-20T13:01:00.979Z,35.70
2018-04-20T13:03:28.378Z,35.40
2018-04-20T13:05:56.494Z,35.20
2018-04-20T13:08:23.882Z,35.10
2018-04-20T13:10:51.381Z,34.90
2018-04-20T13:13:18.862Z,34.70
2018-04-20T13:15:47.007Z,34.70
2018-04-20T13:18:14.478Z,34.70
2018-04-20T13:20:43.495Z,34.60
2018-04-20T13:23:11.708Z,34.30
2018-04-20T13:25:39.899Z,34.10
2018-04-20T13:28:07.236Z,33.70
2018-04-20T13:30:35.350Z,33.90
2018-04-20T13:35:31.819Z,35.80
2018-04-20T13:40:27.583Z,35.40
2018-04-20T13:42:55.694Z,34.60
2018-04-20T13:45:23.083Z,34.30
2018-04-20T13:47:50.441Z,34.40
2018-04-20T13:50:18.553Z,34.10
2018-04-20T13:55:14.347Z,33.10
2018-04-20T14:02:38.329Z,33.40
2018-04-20T14:05:05.703Z,33.20
2018-04-20T14:07:33.066Z,33.00
2018-04-20T14:10:00.703Z,32.70
2018-04-20T14:12:28.112Z,32.90
2018-04-20T14:17:24.576Z,32.60
2018-04-20T14:19:52.720Z,33.20
2018-04-20T14:27:17.484Z,32.70
2018-04-20T14:32:14.041Z,32.40
2018-04-20T14:37:09.695Z,32.20
2018-04-20T14:42:05.610Z,32.10
2018-04-20T14:44:32.978Z,32.00
2018-04-20T14:49:29.742Z,31.80
2018-04-20T14:51:57.302Z,31.70
2018-04-20T14:54:25.584Z,31.40
2018-04-20T14:56:53.042Z,31.40
2018-04-20T14:59:20.754Z,31.20
2018-04-20T15:01:48.901Z,31.50
2018-04-20T15:04:16.239Z,31.60
2018-04-20T15:06:44.562Z,31.20
2018-04-20T15:09:12.115Z,30.90
2018-04-20T15:11:40.279Z,30.90
2018-04-20T15:14:07.646Z,31.20
2018-04-20T15:16:35.218Z,31.20
2018-04-20T15:19:02.710Z,30.90
2018-04-20T15:21:30.204Z,30.60
2018-04-20T15:23:58.404Z,30.40
2018-04-20T15:26:25.828Z,30.50
2018-04-20T15:28:53.199Z,30.50
2018-04-20T15:31:21.496Z,30.50
2018-04-20T15:33:48.881Z,30.50
2018-04-20T15:36:16.351Z,30.40
2018-04-20T15:38:43.847Z,30.20
2018-04-20T15:41:12.295Z,29.90
2018-04-20T15:43:39.635Z,29.90
2018-04-20T15:46:07.799Z,29.80
2018-04-20T15:48:35.159Z,29.90
2018-04-20T15:51:02.539Z,29.90
2018-04-20T15:55:58.939Z,29.80
2018-04-20T16:00:50.146Z,29.70
2018-04-20T16:05:45.863Z,29.20
2018-04-20T16:08:13.211Z,29.00
2018-04-20T16:13:08.884Z,28.60
2018-04-20T16:15:36.271Z,28.50
2018-04-20T16:18:03.602Z,28.50
2018-04-20T16:23:00.243Z,28.40
2018-04-20T16:25:27.595Z,28.40
2018-04-20T16:27:54.965Z,28.40
2018-04-20T16:30:22.442Z,28.30
2018-04-20T16:32:49.819Z,28.30
2018-04-20T16:37:45.419Z,28.20
2018-04-20T16:42:41.153Z,28.10
2018-04-20T16:45:08.582Z,28.10
2018-04-20T16:47:35.950Z,28.20
2018-04-20T16:52:31.696Z,28.00
2018-04-20T16:54:59.899Z,28.00
2018-04-20T16:57:27.350Z,27.90
2018-04-20T16:59:55.108Z,27.90
2018-04-20T17:02:23.182Z,27.90
2018-04-20T17:04:50.596Z,27.80
2018-04-20T17:07:18.035Z,27.70
2018-04-20T17:09:45.494Z,27.60
2018-04-20T17:12:13.041Z,27.40
2018-04-20T17:17:09.943Z,27.40
2018-04-20T17:19:37.328Z,27.30
2018-04-20T17:24:32.998Z,27.10
2018-04-20T17:29:28.753Z,27.30
2018-04-20T17:34:25.202Z,27.30
2018-04-20T17:36:54.155Z,27.30
2018-04-20T17:39:23.648Z,27.30
2018-04-20T17:41:51.043Z,27.30
2018-04-20T17:49:16.235Z,27.30
2018-04-20T17:51:43.662Z,27.30
2018-04-20T17:54:11.740Z,27.30
2018-04-20T17:56:39.516Z,27.30
2018-04-20T18:01:37.207Z,27.20
2018-04-20T18:04:04.656Z,27.20
2018-04-20T18:06:36.758Z,27.20
2018-04-20T18:09:04.922Z,27.10
2018-04-20T18:11:32.311Z,27.10
2018-04-20T18:14:01.710Z,27.10
2018-04-20T18:16:29.475Z,27.10
2018-04-20T18:18:57.528Z,27.10
2018-04-20T18:21:27.740Z,27.10
2018-04-20T18:23:55.213Z,27.00
2018-04-20T18:26:22.556Z,27.00
2018-04-20T18:28:50.639Z,26.60
2018-04-20T18:31:18.024Z,26.40
2018-04-20T18:33:46.222Z,26.10
2018-04-20T18:36:14.409Z,26.00
2018-04-20T18:38:43.126Z,26.00
2018-04-20T18:43:38.827Z,26.10
2018-04-20T18:46:06.348Z,26.20
2018-04-20T18:48:33.696Z,26.40
2018-04-20T18:51:01.082Z,26.40
2018-04-20T18:53:28.528Z,26.30
2018-04-20T18:55:56.930Z,26.30
2018-04-20T18:58:24.404Z,26.60
2018-04-20T19:00:52.647Z,26.80
2018-04-20T19:03:20.138Z,26.90
2018-04-20T19:05:47.558Z,27.00
2018-04-20T19:08:15.690Z,26.90
2018-04-20T19:10:43.157Z,26.90
2018-04-20T19:13:11.272Z,26.90
2018-04-20T19:15:39.033Z,26.80
2018-04-20T19:18:06.526Z,26.70
2018-04-20T19:20:33.955Z,26.70
2018-04-20T19:23:01.787Z,26.70
2018-04-20T19:28:04.782Z,26.60
2018-04-20T19:30:32.234Z,26.50
2018-04-20T19:35:29.868Z,26.50
2018-04-20T19:37:58.470Z,26.40
2018-04-20T19:40:26.551Z,26.30
2018-04-20T19:42:54.682Z,26.30
2018-04-20T19:45:23.151Z,26.30
2018-04-20T19:52:48.916Z,26.20
2018-04-20T19:55:16.287Z,26.10
2018-04-20T19:57:44.522Z,26.00
2018-04-20T20:00:14.289Z,26.00
2018-04-20T20:02:43.472Z,26.00
2018-04-20T20:05:10.940Z,26.00
2018-04-20T20:07:38.339Z,25.90
2018-04-20T20:10:06.558Z,25.80
2018-04-20T20:12:33.956Z,25.80
2018-04-20T20:15:01.340Z,25.90
2018-04-20T20:17:29.436Z,26.00
2018-04-20T20:19:56.954Z,26.00
2018-04-20T20:22:25.089Z,26.00
2018-04-20T20:24:52.467Z,25.90
2018-04-20T20:27:20.592Z,25.60
2018-04-20T20:29:48.738Z,25.10
2018-04-20T20:32:16.836Z,25.30
2018-04-20T20:34:45.068Z,25.70
2018-04-20T20:37:13.172Z,25.90
2018-04-20T20:39:40.667Z,26.00
2018-04-20T20:42:08.078Z,26.00
2018-04-20T20:44:35.571Z,25.90
2018-04-20T20:47:02.951Z,25.90
2018-04-20T20:51:59.331Z,25.90
2018-04-20T20:54:27.432Z,25.80
2018-04-20T20:56:54.899Z,25.80
2018-04-20T20:59:22.374Z,25.80
2018-04-20T21:01:49.750Z,25.80
2018-04-20T21:04:18.174Z,25.80
2018-04-20T21:09:14.626Z,25.80
2018-04-20T21:11:42.832Z,25.80
2018-04-20T21:14:10.329Z,25.70
2018-04-20T21:19:06.747Z,25.70
2018-04-20T21:24:03.182Z,25.60
2018-04-20T21:28:59.119Z,25.50
2018-04-20T21:33:59.380Z,25.60
2018-04-20T21:38:52.148Z,25.50
2018-04-20T21:43:48.661Z,25.30
2018-04-20T21:48:45.223Z,24.00
2018-04-20T21:51:13.269Z,24.20
2018-04-20T21:53:40.687Z,24.40
2018-04-20T21:56:08.784Z,24.00
2018-04-20T22:01:04.776Z,23.30
2018-04-20T22:06:00.623Z,23.90
2018-04-20T22:08:29.199Z,23.70
2018-04-20T22:10:57.400Z,23.40
2018-04-20T22:13:25.529Z,23.50
2018-04-20T22:15:52.951Z,23.60
2018-04-20T22:18:21.415Z,23.30
2018-04-20T22:20:49.645Z,23.00
2018-04-20T22:23:16.976Z,23.40
2018-04-20T22:25:45.140Z,23.80
2018-04-20T22:28:13.233Z,24.00
2018-04-20T22:33:09.619Z,23.90
2018-04-20T22:38:05.570Z,23.50
2018-04-20T22:40:33.697Z,23.80
2018-04-20T22:43:01.898Z,24.10
2018-04-20T22:45:30.071Z,24.20
2018-04-20T22:50:25.698Z,24.10
2018-04-20T22:52:53.214Z,23.80
2018-04-20T23:00:21.231Z,24.10
2018-04-20T23:07:45.193Z,24.40
2018-04-20T23:10:12.745Z,24.30
2018-04-20T23:12:40.800Z,24.30
2018-04-20T23:15:08.904Z,24.30
2018-04-20T23:17:36.368Z,24.30
2018-04-20T23:22:32.298Z,24.00
2018-04-20T23:24:59.861Z,23.90
2018-04-20T23:29:56.582Z,23.80
2018-04-20T23:32:23.963Z,23.90
2018-04-20T23:37:20.416Z,24.00
2018-04-20T23:39:48.778Z,24.10
2018-04-20T23:42:16.271Z,23.90
2018-04-20T23:44:43.598Z,23.90
2018-04-20T23:47:11.026Z,23.90
2018-04-20T23:49:39.123Z,23.90
2018-04-20T23:52:06.975Z,24.00
2018-04-20T23:57:03.375Z,23.90
